Time;durP1;ratioP1;P1;durP2;ratioP2;P2;SDS_P1;SDS_P2;PMS_P1;PMS_P2;Temp;Humidity;BMP_temperature;BMP_pressure;BME280_temperature;BME280_humidity;BME280_pressure;Samples;Min_cycle;Max_cycle;Signal;HPM_P1;HPM_P2
2022/11/15 00:00:00;;;;;;;1.27;0.30;;;;;;;;;;1856760;76;26743;-55
2022/11/15 00:02:28;;;;;;;0.30;0.30;;;;;;;;;;1872946;76;27346;-52
2022/11/15 00:04:55;;;;;;;0.20;0.20;;;;;;;;;;1868897;76;27216;-55
2022/11/15 00:07:22;;;;;;;0.30;0.30;;;;;;;;;;1865614;76;28146;-52
2022/11/15 00:09:50;;;;;;;0.10;0.10;;;;;;;;;;1873617;75;26275;-51
2022/11/15 00:12:18;;;;;;;1.75;0.10;;;;;;;;;;1871278;75;26353;-50
2022/11/15 00:14:45;;;;;;;0.53;0.28;;;;;;;;;;1866710;76;26267;-52
2022/11/15 00:17:13;;;;;;;0.85;0.20;;;;;;;;;;1876285;75;26243;-51
2022/11/15 00:19:40;;;;;;;0.10;0.10;;;;;;;;;;1871110;75;26329;-53
2022/11/15 00:22:07;;;;;;;0.25;0.25;;;;;;;;;;1876155;76;26255;-54
2022/11/15 00:24:34;;;;;;;0.10;0.10;;;;;;;;;;1866766;75;26326;-55
2022/11/15 00:27:02;;;;;;;0.10;0.10;;;;;;;;;;1872813;75;26276;-53
2022/11/15 00:29:29;;;;;;;0.20;0.20;;;;;;;;;;1860899;75;26371;-54
2022/11/15 00:31:57;;;;;;;0.10;0.10;;;;;;;;;;1874558;76;26264;-53
2022/11/15 00:34:24;;;;;;;0.15;0.15;;;;;;;;;;1878728;76;26279;-50
2022/11/15 00:36:51;;;;;;;0.23;0.20;;;;;;;;;;1877250;75;26264;-52
2022/11/15 00:39:18;;;;;;;0.15;0.15;;;;;;;;;;1866899;75;26586;-53
2022/11/15 00:41:46;;;;;;;0.10;0.10;;;;;;;;;;1871080;76;26412;-52
2022/11/15 00:44:13;;;;;;;0.20;0.20;;;;;;;;;;1875372;76;27381;-54
2022/11/15 00:46:41;;;;;;;0.42;0.20;;;;;;;;;;1866185;75;26893;-54
2022/11/15 00:49:09;;;;;;;0.13;0.13;;;;;;;;;;1878582;75;26346;-53
2022/11/15 00:51:36;;;;;;;0.10;0.10;;;;;;;;;;1872010;75;26336;-52
2022/11/15 00:54:03;;;;;;;0.10;0.10;;;;;;;;;;1871013;75;26286;-52
2022/11/15 00:56:31;;;;;;;1.27;0.20;;;;;;;;;;1877734;76;26321;-51
2022/11/15 00:58:59;;;;;;;0.10;0.10;;;;;;;;;;1871165;75;26263;-52
2022/11/15 01:01:26;;;;;;;0.10;0.10;;;;;;;;;;1861654;75;26298;-50
2022/11/15 01:03:53;;;;;;;0.20;0.20;;;;;;;;;;1872633;76;26360;-49
2022/11/15 01:06:21;;;;;;;0.10;0.10;;;;;;;;;;1856651;75;26297;-50
2022/11/15 01:08:48;;;;;;;0.17;0.17;;;;;;;;;;1877391;76;26334;-50
2022/11/15 01:11:16;;;;;;;0.10;0.10;;;;;;;;;;1870103;75;26314;-53
2022/11/15 01:13:43;;;;;;;0.10;0.10;;;;;;;;;;1874861;75;26282;-53
2022/11/15 01:16:12;;;;;;;0.10;0.10;;;;;;;;;;1865716;75;26278;-51
2022/11/15 01:18:40;;;;;;;0.10;0.10;;;;;;;;;;1873139;76;26271;-48
2022/11/15 01:21:08;;;;;;;0.55;0.25;;;;;;;;;;1874350;75;26418;-53
2022/11/15 01:23:35;;;;;;;0.10;0.10;;;;;;;;;;1868075;75;26411;-51
2022/11/15 01:26:04;;;;;;;0.17;0.17;;;;;;;;;;1872833;75;26353;-55
2022/11/15 01:28:35;;;;;;;0.75;0.00;;;;;;;;;;1863733;76;26266;-53
2022/11/15 01:31:03;;;;;;;0.13;0.13;;;;;;;;;;1874167;75;26741;-52
2022/11/15 01:33:31;;;;;;;0.10;0.10;;;;;;;;;;1873797;76;26341;-52
2022/11/15 01:35:58;;;;;;;0.00;0.00;;;;;;;;;;1871276;76;26817;-51
2022/11/15 01:38:25;;;;;;;0.10;0.10;;;;;;;;;;1877058;75;27359;-53
2022/11/15 01:40:52;;;;;;;0.13;0.13;;;;;;;;;;1875219;75;26283;-49
2022/11/15 01:43:21;;;;;;;0.10;0.10;;;;;;;;;;1875022;75;26251;-49
2022/11/15 01:45:50;;;;;;;0.10;0.10;;;;;;;;;;1864396;76;26571;-52
2022/11/15 01:48:17;;;;;;;0.00;0.00;;;;;;;;;;1869249;75;26266;-55
2022/11/15 01:50:45;;;;;;;0.10;0.10;;;;;;;;;;1870146;76;26341;-49
2022/11/15 01:53:13;;;;;;;0.03;0.03;;;;;;;;;;1876530;75;26324;-52
2022/11/15 01:55:40;;;;;;;0.15;0.15;;;;;;;;;;1874360;75;26270;-49
2022/11/15 01:58:07;;;;;;;0.03;0.03;;;;;;;;;;1866562;75;26780;-52
2022/11/15 02:00:35;;;;;;;0.10;0.10;;;;;;;;;;1874129;75;26322;-53
2022/11/15 02:03:02;;;;;;;0.17;0.10;;;;;;;;;;1868153;75;26380;-51
2022/11/15 02:05:31;;;;;;;0.00;0.00;;;;;;;;;;1875446;75;26335;-54
2022/11/15 02:08:00;;;;;;;0.08;0.08;;;;;;;;;;1857263;75;26301;-53
2022/11/15 02:10:28;;;;;;;0.00;0.00;;;;;;;;;;1859995;76;26258;-55
2022/11/15 02:12:56;;;;;;;0.10;0.10;;;;;;;;;;1866799;75;27060;-52
2022/11/15 02:15:25;;;;;;;0.10;0.10;;;;;;;;;;1872924;75;26263;-54
2022/11/15 02:18:00;;;;;;;0.10;0.10;;;;;;;;;;1861804;75;26399;-56
2022/11/15 02:20:38;;;;;;;0.03;0.03;;;;;;;;;;1848929;75;26357;-48
2022/11/15 02:23:16;;;;;;;0.10;0.10;;;;;;;;;;1864614;75;26282;-49
2022/11/15 02:25:54;;;;;;;0.05;0.05;;;;;;;;;;1880580;76;26346;-51
2022/11/15 02:28:39;;;;;;;0.10;0.10;;;;;;;;;;1858309;75;27248;-53
2022/11/15 02:31:24;;;;;;;0.10;0.10;;;;;;;;;;1872529;76;26700;-53
2022/11/15 02:33:55;;;;;;;0.08;0.08;;;;;;;;;;1877785;75;26255;-56
2022/11/15 02:36:27;;;;;;;0.00;0.00;;;;;;;;;;1853867;75;26310;-52
2022/11/15 02:39:01;;;;;;;0.08;0.08;;;;;;;;;;1836942;76;26341;-50
2022/11/15 02:41:30;;;;;;;0.10;0.10;;;;;;;;;;1878554;75;26255;-52
2022/11/15 02:43:59;;;;;;;0.13;0.13;;;;;;;;;;1878116;75;26261;-56
2022/11/15 02:47:12;;;;;;;0.10;0.10;;;;;;;;;;1858225;75;26763;-51
2022/11/15 02:48:57;;;;;;;0.00;0.00;;;;;;;;;;1863842;75;26340;-53
2022/11/15 02:51:24;;;;;;;0.08;0.08;;;;;;;;;;1873828;75;26277;-52
2022/11/15 02:53:52;;;;;;;0.10;0.10;;;;;;;;;;1874182;75;26436;-52
2022/11/15 02:56:19;;;;;;;0.00;0.00;;;;;;;;;;1880578;75;26263;-53
2022/11/15 02:58:53;;;;;;;0.10;0.10;;;;;;;;;;1871947;75;26691;-51
2022/11/15 03:01:34;;;;;;;0.10;0.10;;;;;;;;;;1874266;76;26251;-54
2022/11/15 03:04:03;;;;;;;0.08;0.08;;;;;;;;;;1875140;75;26351;-54
2022/11/15 03:06:35;;;;;;;0.10;0.10;;;;;;;;;;1869169;75;26368;-56
2022/11/15 03:09:04;;;;;;;0.15;0.15;;;;;;;;;;1879252;75;26291;-54
2022/11/15 03:11:33;;;;;;;0.00;0.00;;;;;;;;;;1879354;75;26267;-55
2022/11/15 03:14:05;;;;;;;0.00;0.00;;;;;;;;;;1874654;75;26208;-54
2022/11/15 03:16:34;;;;;;;0.20;0.10;;;;;;;;;;1864502;75;26259;-51
2022/11/15 03:19:08;;;;;;;0.00;0.00;;;;;;;;;;1879553;75;26247;-53
2022/11/15 03:21:38;;;;;;;0.03;0.03;;;;;;;;;;1866892;75;26292;-53
2022/11/15 03:24:07;;;;;;;0.08;0.08;;;;;;;;;;1864170;75;26478;-53
2022/11/15 03:26:35;;;;;;;0.10;0.10;;;;;;;;;;1866838;75;26329;-50
2022/11/15 03:29:07;;;;;;;0.05;0.05;;;;;;;;;;1885594;75;27504;-55
2022/11/15 03:31:48;;;;;;;0.10;0.10;;;;;;;;;;1872859;75;26413;-56
2022/11/15 03:34:33;;;;;;;0.10;0.10;;;;;;;;;;1874475;75;26322;-52
2022/11/15 03:37:01;;;;;;;0.20;0.20;;;;;;;;;;1880450;76;26302;-51
2022/11/15 03:39:29;;;;;;;0.10;0.10;;;;;;;;;;1867597;75;25946;-50
2022/11/15 03:42:13;;;;;;;0.00;0.00;;;;;;;;;;1869944;75;26271;-51
2022/11/15 03:44:42;;;;;;;0.55;0.10;;;;;;;;;;1870383;75;26203;-53
2022/11/15 03:47:14;;;;;;;0.20;0.20;;;;;;;;;;1878569;75;26345;-55
2022/11/15 03:49:49;;;;;;;0.05;0.05;;;;;;;;;;1872555;75;26325;-52
2022/11/15 03:52:17;;;;;;;0.10;0.10;;;;;;;;;;1873025;75;26807;-54
2022/11/15 03:54:49;;;;;;;0.10;0.10;;;;;;;;;;1873818;75;27624;-55
2022/11/15 03:57:16;;;;;;;0.05;0.05;;;;;;;;;;1875045;75;26271;-53
2022/11/15 03:59:44;;;;;;;0.37;0.10;;;;;;;;;;1885178;75;26254;-51
2022/11/15 04:02:11;;;;;;;0.10;0.10;;;;;;;;;;1865855;75;26211;-53
2022/11/15 04:04:38;;;;;;;0.10;0.10;;;;;;;;;;1874263;75;26299;-54
2022/11/15 04:07:05;;;;;;;1.20;0.10;;;;;;;;;;1813528;78;26352;-52
2022/11/15 04:09:33;;;;;;;0.00;0.00;;;;;;;;;;1840096;76;26253;-53
2022/11/15 04:12:00;;;;;;;0.10;0.10;;;;;;;;;;1848830;76;26291;-50
2022/11/15 04:14:27;;;;;;;0.00;0.00;;;;;;;;;;1835236;78;26876;-51
2022/11/15 04:16:55;;;;;;;0.10;0.10;;;;;;;;;;1843459;78;26756;-55
2022/11/15 04:24:53;;;;;;;0.20;0.20;;;;;;;;;;1831322;78;26668;-51
2022/11/15 04:27:21;;;;;;;1.95;0.15;;;;;;;;;;1843952;78;26296;-51
2022/11/15 04:29:48;;;;;;;0.20;0.20;;;;;;;;;;1845589;78;26256;-50
2022/11/15 04:32:15;;;;;;;0.03;0.03;;;;;;;;;;1836972;77;26653;-54
2022/11/15 04:34:42;;;;;;;0.10;0.10;;;;;;;;;;1842260;77;26920;-50
2022/11/15 04:37:12;;;;;;;0.10;0.10;;;;;;;;;;1839501;78;26272;-52
2022/11/15 04:39:41;;;;;;;0.10;0.10;;;;;;;;;;1837969;78;26291;-55
2022/11/15 04:42:08;;;;;;;0.20;0.20;;;;;;;;;;1837483;78;26733;-53
2022/11/15 04:44:35;;;;;;;0.20;0.20;;;;;;;;;;1841657;77;26260;-49
2022/11/15 04:47:03;;;;;;;0.10;0.10;;;;;;;;;;1834951;78;26261;-51
2022/11/15 04:49:30;;;;;;;0.57;0.20;;;;;;;;;;1840238;78;26261;-51
2022/11/15 04:51:57;;;;;;;0.17;0.17;;;;;;;;;;1829115;77;26376;-51
2022/11/15 04:54:25;;;;;;;0.10;0.10;;;;;;;;;;1827353;77;26270;-49
2022/11/15 04:56:52;;;;;;;0.10;0.10;;;;;;;;;;1836965;78;26242;-50
2022/11/15 04:59:20;;;;;;;0.13;0.13;;;;;;;;;;1835550;78;26268;-50
2022/11/15 05:01:48;;;;;;;0.20;0.20;;;;;;;;;;1844501;78;26322;-51
2022/11/15 05:04:21;;;;;;;0.20;0.20;;;;;;;;;;1840372;78;26338;-50
2022/11/15 05:06:49;;;;;;;0.10;0.10;;;;;;;;;;1828656;78;26370;-49
2022/11/15 05:09:18;;;;;;;0.20;0.20;;;;;;;;;;1835831;78;26276;-50
2022/11/15 05:11:45;;;;;;;0.10;0.10;;;;;;;;;;1836742;78;26346;-52
2022/11/15 05:14:13;;;;;;;0.25;0.20;;;;;;;;;;1836775;78;26256;-53
2022/11/15 05:16:40;;;;;;;0.20;0.10;;;;;;;;;;1832610;78;26271;-52
2022/11/15 05:19:08;;;;;;;0.10;0.10;;;;;;;;;;1841114;78;26256;-56
2022/11/15 05:21:35;;;;;;;0.10;0.10;;;;;;;;;;1838404;77;26236;-52
2022/11/15 05:24:03;;;;;;;0.10;0.10;;;;;;;;;;1844187;77;26578;-52
2022/11/15 05:26:30;;;;;;;0.23;0.20;;;;;;;;;;1836031;78;26353;-52
2022/11/15 05:28:59;;;;;;;0.10;0.10;;;;;;;;;;1831253;77;26780;-53
2022/11/15 05:31:27;;;;;;;0.20;0.20;;;;;;;;;;1834374;76;26907;-52
2022/11/15 05:33:55;;;;;;;8.35;0.40;;;;;;;;;;1816986;76;26275;-53
2022/11/15 05:36:24;;;;;;;0.98;0.35;;;;;;;;;;1798366;78;27590;-49
2022/11/15 05:38:51;;;;;;;1.95;0.53;;;;;;;;;;1807338;78;26778;-49
2022/11/15 05:41:20;;;;;;;2.42;0.40;;;;;;;;;;1842130;76;26272;-49
2022/11/15 05:43:49;;;;;;;2.08;0.30;;;;;;;;;;1840756;76;26366;-56
2022/11/15 05:46:17;;;;;;;1.47;0.30;;;;;;;;;;1833034;76;26258;-49
2022/11/15 05:48:46;;;;;;;2.83;0.40;;;;;;;;;;1839554;76;27443;-48
2022/11/15 05:51:15;;;;;;;0.30;0.30;;;;;;;;;;1839675;78;26205;-46
2022/11/15 05:53:42;;;;;;;1.65;0.40;;;;;;;;;;1835284;76;26275;-48
2022/11/15 05:56:10;;;;;;;2.42;0.60;;;;;;;;;;1840385;76;26373;-49
2022/11/15 05:58:37;;;;;;;0.50;0.50;;;;;;;;;;1840401;78;26948;-50
2022/11/15 06:01:05;;;;;;;1.22;0.40;;;;;;;;;;1840698;76;26354;-55
2022/11/15 06:03:32;;;;;;;0.65;0.35;;;;;;;;;;1838856;76;26769;-50
2022/11/15 06:06:01;;;;;;;0.30;0.30;;;;;;;;;;1840505;76;26285;-50
2022/11/15 06:08:28;;;;;;;0.42;0.23;;;;;;;;;;1841992;78;26269;-55
2022/11/15 06:10:56;;;;;;;0.60;0.60;;;;;;;;;;1839922;78;26311;-52
2022/11/15 06:13:23;;;;;;;2.45;0.42;;;;;;;;;;1811061;78;26322;-52
2022/11/15 06:15:50;;;;;;;2.02;0.60;;;;;;;;;;1838051;78;26248;-47
2022/11/15 06:18:17;;;;;;;0.33;0.33;;;;;;;;;;1840825;76;26334;-51
2022/11/15 06:20:45;;;;;;;0.35;0.35;;;;;;;;;;1821392;76;26319;-51
2022/11/15 06:23:13;;;;;;;0.75;0.65;;;;;;;;;;1826852;78;26271;-52
2022/11/15 06:25:40;;;;;;;1.05;0.60;;;;;;;;;;1828111;77;26293;-52
2022/11/15 06:28:07;;;;;;;0.68;0.30;;;;;;;;;;1842670;78;26384;-49
2022/11/15 06:30:35;;;;;;;0.95;0.80;;;;;;;;;;1829481;78;26295;-52
2022/11/15 06:33:03;;;;;;;1.40;0.40;;;;;;;;;;1834542;77;26503;-51
2022/11/15 06:35:30;;;;;;;0.93;0.40;;;;;;;;;;1832987;78;26810;-54
2022/11/15 06:37:59;;;;;;;1.87;0.60;;;;;;;;;;1844001;78;26333;-52
2022/11/15 06:40:26;;;;;;;1.27;0.35;;;;;;;;;;1844435;78;26338;-52
2022/11/15 06:42:55;;;;;;;2.22;0.30;;;;;;;;;;1838713;78;26276;-51
2022/11/15 06:45:22;;;;;;;2.05;0.50;;;;;;;;;;1833874;78;26447;-53
2022/11/15 06:47:49;;;;;;;0.33;0.33;;;;;;;;;;1834974;78;26252;-49
2022/11/15 06:50:17;;;;;;;0.93;0.33;;;;;;;;;;1828001;78;26292;-51
2022/11/15 06:52:44;;;;;;;1.25;0.47;;;;;;;;;;1830787;78;26551;-54
2022/11/15 06:55:11;;;;;;;0.50;0.50;;;;;;;;;;1829869;77;26518;-58
2022/11/15 06:57:40;;;;;;;1.65;0.20;;;;;;;;;;1805966;78;26337;-58
2022/11/15 07:00:08;;;;;;;0.40;0.40;;;;;;;;;;1831036;76;26345;-56
2022/11/15 07:02:35;;;;;;;0.55;0.30;;;;;;;;;;1832994;76;26648;-56
2022/11/15 07:05:02;;;;;;;2.37;0.40;;;;;;;;;;1832357;76;26854;-58
2022/11/15 07:07:30;;;;;;;0.80;0.40;;;;;;;;;;1840759;76;26883;-57
2022/11/15 07:09:57;;;;;;;0.40;0.40;;;;;;;;;;1833721;76;27377;-57
2022/11/15 07:12:24;;;;;;;1.45;0.40;;;;;;;;;;1827137;76;26749;-58
2022/11/15 07:14:51;;;;;;;0.70;0.30;;;;;;;;;;1836106;76;26354;-58
2022/11/15 07:17:19;;;;;;;0.40;0.40;;;;;;;;;;1829603;76;26215;-57
2022/11/15 07:19:46;;;;;;;0.20;0.20;;;;;;;;;;1831274;76;26270;-59
2022/11/15 07:22:13;;;;;;;0.40;0.40;;;;;;;;;;1807412;78;27738;-59
2022/11/15 07:24:41;;;;;;;0.30;0.30;;;;;;;;;;1825291;77;26887;-59
2022/11/15 07:27:08;;;;;;;0.28;0.28;;;;;;;;;;1830693;76;26260;-58
2022/11/15 07:29:35;;;;;;;3.67;0.30;;;;;;;;;;1812491;77;26267;-58
2022/11/15 07:32:02;;;;;;;0.30;0.30;;;;;;;;;;1831906;76;26361;-58
2022/11/15 07:34:30;;;;;;;0.70;0.20;;;;;;;;;;1833712;76;26368;-58
2022/11/15 07:36:57;;;;;;;0.30;0.28;;;;;;;;;;1833387;76;26748;-53
2022/11/15 07:39:24;;;;;;;0.15;0.15;;;;;;;;;;1837353;76;26261;-55
2022/11/15 07:42:52;;;;;;;0.20;0.20;;;;;;;;;;1832604;76;26248;-55
2022/11/15 07:44:20;;;;;;;0.10;0.10;;;;;;;;;;1820075;76;26795;-54
2022/11/15 07:46:48;;;;;;;0.40;0.40;;;;;;;;;;1842533;76;26579;-51
2022/11/15 07:49:15;;;;;;;0.30;0.30;;;;;;;;;;1826179;76;26268;-58
2022/11/15 07:51:42;;;;;;;1.40;0.33;;;;;;;;;;1818170;77;26390;-52
2022/11/15 07:54:09;;;;;;;0.40;0.40;;;;;;;;;;1808224;78;26294;-52
2022/11/15 07:56:37;;;;;;;0.85;0.30;;;;;;;;;;1814627;77;26273;-56
2022/11/15 07:59:04;;;;;;;1.17;0.30;;;;;;;;;;1868506;75;26289;-50
2022/11/15 08:01:31;;;;;;;1.15;0.20;;;;;;;;;;1869075;75;26356;-58
2022/11/15 08:03:58;;;;;;;0.30;0.30;;;;;;;;;;1867591;75;26368;-57
2022/11/15 08:06:26;;;;;;;0.20;0.20;;;;;;;;;;1862346;75;26270;-57
2022/11/15 08:08:53;;;;;;;0.10;0.10;;;;;;;;;;1872826;75;26258;-57
2022/11/15 08:11:20;;;;;;;0.75;0.25;;;;;;;;;;1879136;75;26763;-57
2022/11/15 08:13:48;;;;;;;0.30;0.28;;;;;;;;;;1876450;75;26827;-55
2022/11/15 08:16:15;;;;;;;0.20;0.20;;;;;;;;;;1870778;75;26813;-51
2022/11/15 08:18:42;;;;;;;0.33;0.33;;;;;;;;;;1869148;75;26419;-50
2022/11/15 08:21:10;;;;;;;0.55;0.20;;;;;;;;;;1872065;75;26265;-53
2022/11/15 08:23:37;;;;;;;0.30;0.30;;;;;;;;;;1870890;75;26790;-51
2022/11/15 08:26:05;;;;;;;1.00;0.30;;;;;;;;;;1871497;75;26309;-52
2022/11/15 08:28:32;;;;;;;0.20;0.20;;;;;;;;;;1864825;75;26346;-54
2022/11/15 08:31:00;;;;;;;0.20;0.20;;;;;;;;;;1875590;75;26384;-49
2022/11/15 08:33:27;;;;;;;0.30;0.30;;;;;;;;;;1881573;74;26400;-50
2022/11/15 08:35:56;;;;;;;0.20;0.20;;;;;;;;;;1874384;74;26753;-54
2022/11/15 08:38:24;;;;;;;0.20;0.20;;;;;;;;;;1873353;75;26647;-51
2022/11/15 08:40:55;;;;;;;0.10;0.10;;;;;;;;;;1871723;75;26327;-55
2022/11/15 08:43:22;;;;;;;0.23;0.23;;;;;;;;;;1868981;75;26821;-50
2022/11/15 08:45:49;;;;;;;0.30;0.30;;;;;;;;;;1874001;75;26688;-53
2022/11/15 08:48:16;;;;;;;0.40;0.40;;;;;;;;;;1872402;75;26663;-52
2022/11/15 08:50:44;;;;;;;0.10;0.10;;;;;;;;;;1869061;75;26584;-53
2022/11/15 08:53:11;;;;;;;0.20;0.13;;;;;;;;;;1869857;75;26287;-53
2022/11/15 08:55:39;;;;;;;0.30;0.30;;;;;;;;;;1870958;75;26293;-54
2022/11/15 08:58:07;;;;;;;0.20;0.20;;;;;;;;;;1870475;75;26351;-56
2022/11/15 09:00:34;;;;;;;0.17;0.17;;;;;;;;;;1866869;75;26259;-55
2022/11/15 09:03:03;;;;;;;0.40;0.40;;;;;;;;;;1860275;75;28153;-58
2022/11/15 09:05:30;;;;;;;0.20;0.20;;;;;;;;;;1877548;75;26427;-57
2022/11/15 09:07:57;;;;;;;0.20;0.20;;;;;;;;;;1871783;75;26345;-58
2022/11/15 09:10:25;;;;;;;0.20;0.20;;;;;;;;;;1871320;75;26363;-57
2022/11/15 09:12:52;;;;;;;0.28;0.28;;;;;;;;;;1870788;75;27176;-54
2022/11/15 09:15:19;;;;;;;0.17;0.10;;;;;;;;;;1870978;75;26325;-57
2022/11/15 09:17:47;;;;;;;0.20;0.20;;;;;;;;;;1869777;75;26329;-59
2022/11/15 09:20:14;;;;;;;0.20;0.20;;;;;;;;;;1871578;75;27304;-58
2022/11/15 09:22:42;;;;;;;0.10;0.10;;;;;;;;;;1872204;75;26259;-57
2022/11/15 09:25:09;;;;;;;0.20;0.20;;;;;;;;;;1869257;75;26197;-56
2022/11/15 09:27:37;;;;;;;0.17;0.17;;;;;;;;;;1872497;75;26318;-55
2022/11/15 09:30:05;;;;;;;0.20;0.20;;;;;;;;;;1870072;75;26748;-56
2022/11/15 09:32:32;;;;;;;0.23;0.23;;;;;;;;;;1872315;75;27249;-61
2022/11/15 09:34:59;;;;;;;0.10;0.10;;;;;;;;;;1867031;75;26369;-57
2022/11/15 09:37:27;;;;;;;0.10;0.10;;;;;;;;;;1872731;75;26332;-56
2022/11/15 09:39:54;;;;;;;0.20;0.20;;;;;;;;;;1873732;75;26221;-56
2022/11/15 09:42:32;;;;;;;0.30;0.30;;;;;;;;;;1870523;75;26282;-59
2022/11/15 09:45:06;;;;;;;0.20;0.20;;;;;;;;;;1869161;75;26685;-59
2022/11/15 09:47:42;;;;;;;0.20;0.20;;;;;;;;;;1867463;75;26329;-60
2022/11/15 09:50:13;;;;;;;0.15;0.15;;;;;;;;;;1865016;75;26280;-58
2022/11/15 09:52:42;;;;;;;0.20;0.20;;;;;;;;;;1869256;75;27142;-58
2022/11/15 09:55:10;;;;;;;0.10;0.10;;;;;;;;;;1867692;75;26306;-58
2022/11/15 09:57:45;;;;;;;0.20;0.20;;;;;;;;;;1876516;75;26239;-58
2022/11/15 10:00:20;;;;;;;0.20;0.20;;;;;;;;;;1874171;75;26295;-55
2022/11/15 10:02:49;;;;;;;0.20;0.20;;;;;;;;;;1876598;75;26333;-56
2022/11/15 10:05:18;;;;;;;0.65;0.23;;;;;;;;;;1877021;75;26271;-57
2022/11/15 10:07:52;;;;;;;0.20;0.20;;;;;;;;;;1877398;75;26346;-55
2022/11/15 10:10:21;;;;;;;0.20;0.20;;;;;;;;;;1872452;75;26733;-52
2022/11/15 10:12:49;;;;;;;0.28;0.28;;;;;;;;;;1877452;75;26812;-55
2022/11/15 10:15:22;;;;;;;0.20;0.20;;;;;;;;;;1868640;75;26391;-55
2022/11/15 10:18:05;;;;;;;0.20;0.20;;;;;;;;;;1873598;75;26419;-58
2022/11/15 10:20:36;;;;;;;0.20;0.20;;;;;;;;;;1867458;75;26780;-56
2022/11/15 10:23:04;;;;;;;0.17;0.17;;;;;;;;;;1871558;75;26802;-60
2022/11/15 10:25:33;;;;;;;0.20;0.20;;;;;;;;;;1792472;73;26412;-58
2022/11/15 10:28:17;;;;;;;0.20;0.20;;;;;;;;;;1773663;80;26353;-57
2022/11/15 10:30:46;;;;;;;0.20;0.20;;;;;;;;;;1775137;80;26451;-57
2022/11/15 10:33:15;;;;;;;0.28;0.28;;;;;;;;;;1774303;80;26231;-58
2022/11/15 10:35:42;;;;;;;0.20;0.20;;;;;;;;;;1760385;80;26322;-54
2022/11/15 10:38:11;;;;;;;0.13;0.13;;;;;;;;;;1775840;80;26294;-57
2022/11/15 10:40:39;;;;;;;0.30;0.30;;;;;;;;;;1773718;80;26805;-58
2022/11/15 10:43:14;;;;;;;0.20;0.20;;;;;;;;;;1775376;80;26384;-55
2022/11/15 10:45:42;;;;;;;0.17;0.17;;;;;;;;;;1773238;80;26719;-58
2022/11/15 10:48:13;;;;;;;0.20;0.20;;;;;;;;;;1771924;80;26331;-59
2022/11/15 10:50:42;;;;;;;0.20;0.20;;;;;;;;;;1774376;80;26209;-53
2022/11/15 10:53:13;;;;;;;0.20;0.20;;;;;;;;;;1765016;80;26378;-51
2022/11/15 10:55:41;;;;;;;0.20;0.20;;;;;;;;;;1776447;79;26263;-54
2022/11/15 10:58:09;;;;;;;0.20;0.20;;;;;;;;;;1785834;79;26238;-59
2022/11/15 11:00:39;;;;;;;0.20;0.20;;;;;;;;;;1786444;79;26758;-57
2022/11/15 11:03:08;;;;;;;0.20;0.20;;;;;;;;;;1787649;79;25867;-56
2022/11/15 11:05:37;;;;;;;0.20;0.20;;;;;;;;;;1783136;79;26759;-59
2022/11/15 11:08:06;;;;;;;0.20;0.20;;;;;;;;;;1788684;79;26764;-60
2022/11/15 11:10:34;;;;;;;0.17;0.17;;;;;;;;;;1785642;79;26344;-55
2022/11/15 11:13:14;;;;;;;1.12;0.30;;;;;;;;;;1785433;79;26976;-55
2022/11/15 11:15:43;;;;;;;0.33;0.33;;;;;;;;;;1788068;79;27131;-55
2022/11/15 11:18:15;;;;;;;0.30;0.30;;;;;;;;;;1788582;79;26798;-53
2022/11/15 11:20:44;;;;;;;0.35;0.20;;;;;;;;;;1786657;79;26318;-54
2022/11/15 11:23:18;;;;;;;0.20;0.20;;;;;;;;;;1790012;79;26303;-52
2022/11/15 11:25:53;;;;;;;1.45;0.20;;;;;;;;;;1775601;79;26389;-53
2022/11/15 11:28:25;;;;;;;0.23;0.20;;;;;;;;;;1779282;80;26388;-52
2022/11/15 11:30:56;;;;;;;0.28;0.28;;;;;;;;;;1743711;81;26302;-54
2022/11/15 11:33:31;;;;;;;0.20;0.20;;;;;;;;;;1761583;80;27049;-52
2022/11/15 11:36:00;;;;;;;0.30;0.30;;;;;;;;;;1759723;80;26319;-53
2022/11/15 11:38:41;;;;;;;1.20;0.30;;;;;;;;;;1760243;80;26393;-53
2022/11/15 11:41:13;;;;;;;0.68;0.30;;;;;;;;;;1761717;80;26434;-53
2022/11/15 11:43:51;;;;;;;0.53;0.25;;;;;;;;;;1755499;80;26639;-52
2022/11/15 11:46:34;;;;;;;0.20;0.20;;;;;;;;;;1762130;80;26337;-54
2022/11/15 11:49:03;;;;;;;0.20;0.20;;;;;;;;;;1761118;80;26377;-54
2022/11/15 11:51:35;;;;;;;0.20;0.20;;;;;;;;;;1759948;80;26826;-55
2022/11/15 11:54:06;;;;;;;0.72;0.20;;;;;;;;;;1759440;80;26314;-53
2022/11/15 11:56:35;;;;;;;0.10;0.10;;;;;;;;;;1716480;80;26357;-53
2022/11/15 11:59:09;;;;;;;0.68;0.20;;;;;;;;;;1759750;80;27776;-54
2022/11/15 12:01:38;;;;;;;0.30;0.30;;;;;;;;;;1758871;80;26287;-54
2022/11/15 12:04:16;;;;;;;0.17;0.17;;;;;;;;;;1758721;80;26374;-54
2022/11/15 12:06:54;;;;;;;0.20;0.20;;;;;;;;;;1759337;80;26341;-53
2022/11/15 12:09:32;;;;;;;0.10;0.10;;;;;;;;;;1761096;80;27297;-53
2022/11/15 12:12:01;;;;;;;0.20;0.20;;;;;;;;;;1759450;80;26795;-51
2022/11/15 12:14:30;;;;;;;0.10;0.10;;;;;;;;;;1755666;80;26322;-54
2022/11/15 12:16:58;;;;;;;0.30;0.30;;;;;;;;;;1726563;80;26292;-54
2022/11/15 12:19:25;;;;;;;0.10;0.10;;;;;;;;;;1760601;80;26342;-56
2022/11/15 12:22:00;;;;;;;0.20;0.20;;;;;;;;;;1762970;80;26863;-54
2022/11/15 12:24:29;;;;;;;0.25;0.25;;;;;;;;;;1746052;80;26707;-51
2022/11/15 12:27:03;;;;;;;0.30;0.30;;;;;;;;;;1745408;81;26296;-54
2022/11/15 12:29:35;;;;;;;0.20;0.20;;;;;;;;;;1743148;81;26347;-52
2022/11/15 12:32:03;;;;;;;0.20;0.20;;;;;;;;;;1749090;81;26280;-55
2022/11/15 12:34:32;;;;;;;0.20;0.20;;;;;;;;;;1747378;81;26911;-56
2022/11/15 12:36:59;;;;;;;0.20;0.20;;;;;;;;;;1745239;81;26730;-53
2022/11/15 12:39:43;;;;;;;0.20;0.20;;;;;;;;;;1775942;80;27215;-51
2022/11/15 12:42:15;;;;;;;0.20;0.20;;;;;;;;;;1725827;82;26780;-52
2022/11/15 12:44:44;;;;;;;0.20;0.20;;;;;;;;;;1775771;80;26353;-53
2022/11/15 12:47:12;;;;;;;0.30;0.30;;;;;;;;;;1744279;81;26414;-54
2022/11/15 12:49:41;;;;;;;0.30;0.30;;;;;;;;;;1747971;81;26333;-55
2022/11/15 12:52:09;;;;;;;0.23;0.23;;;;;;;;;;1761185;81;26406;-53
2022/11/15 12:54:38;;;;;;;0.20;0.20;;;;;;;;;;1763440;81;26278;-58
2022/11/15 12:57:07;;;;;;;0.20;0.20;;;;;;;;;;1766694;80;26326;-58
2022/11/15 12:59:58;;;;;;;1.22;0.28;;;;;;;;;;1773960;80;26388;-59
2022/11/15 13:02:27;;;;;;;0.53;0.17;;;;;;;;;;1775108;80;26456;-59
2022/11/15 13:04:56;;;;;;;0.20;0.20;;;;;;;;;;1767135;80;27560;-57
2022/11/15 13:07:31;;;;;;;0.20;0.20;;;;;;;;;;1777028;80;26254;-56
2022/11/15 13:09:58;;;;;;;0.20;0.20;;;;;;;;;;1771257;80;26278;-58
2022/11/15 13:12:30;;;;;;;0.90;0.28;;;;;;;;;;1728059;82;26442;-56
2022/11/15 13:14:58;;;;;;;0.20;0.20;;;;;;;;;;1775105;80;26334;-53
2022/11/15 13:17:30;;;;;;;0.33;0.30;;;;;;;;;;1743942;81;26272;-62
2022/11/15 13:20:11;;;;;;;0.20;0.20;;;;;;;;;;1760153;80;27585;-59
2022/11/15 13:22:51;;;;;;;0.17;0.17;;;;;;;;;;1775331;80;26416;-59
2022/11/15 13:25:22;;;;;;;0.20;0.20;;;;;;;;;;1750888;80;26308;-58
2022/11/15 13:27:51;;;;;;;0.20;0.20;;;;;;;;;;1790860;79;27026;-59
2022/11/15 13:30:23;;;;;;;0.37;0.37;;;;;;;;;;1793258;79;26956;-59
2022/11/15 13:32:50;;;;;;;0.20;0.20;;;;;;;;;;1795682;79;26263;-50
2022/11/15 13:35:22;;;;;;;2.40;0.25;;;;;;;;;;1790450;79;27148;-58
2022/11/15 13:37:50;;;;;;;0.20;0.20;;;;;;;;;;1793515;79;26277;-58
2022/11/15 13:40:19;;;;;;;0.45;0.17;;;;;;;;;;1793151;79;26635;-58
2022/11/15 13:42:46;;;;;;;0.17;0.17;;;;;;;;;;1757568;80;26369;-57
2022/11/15 13:45:15;;;;;;;0.20;0.20;;;;;;;;;;1790223;79;26226;-58
2022/11/15 13:47:43;;;;;;;0.23;0.23;;;;;;;;;;1793591;79;26825;-59
2022/11/15 13:50:14;;;;;;;0.20;0.20;;;;;;;;;;1791933;79;27053;-60
2022/11/15 13:52:43;;;;;;;0.20;0.20;;;;;;;;;;1791395;79;26390;-56
2022/11/15 13:55:13;;;;;;;0.10;0.10;;;;;;;;;;1793341;79;26919;-59
2022/11/15 13:57:51;;;;;;;0.17;0.17;;;;;;;;;;1757859;80;26365;-58
2022/11/15 14:00:29;;;;;;;0.20;0.20;;;;;;;;;;1791194;79;26848;-57
2022/11/15 14:02:57;;;;;;;0.20;0.20;;;;;;;;;;1792475;79;26357;-58
2022/11/15 14:05:25;;;;;;;0.20;0.20;;;;;;;;;;1791326;79;26274;-59
2022/11/15 14:07:57;;;;;;;0.10;0.10;;;;;;;;;;1794716;79;26309;-54
2022/11/15 14:10:32;;;;;;;0.10;0.10;;;;;;;;;;1771335;79;26336;-58
2022/11/15 14:13:00;;;;;;;0.28;0.20;;;;;;;;;;1790946;79;26301;-57
2022/11/15 14:15:32;;;;;;;0.20;0.20;;;;;;;;;;1775051;79;27506;-56
2022/11/15 14:17:59;;;;;;;0.20;0.20;;;;;;;;;;1790653;79;26306;-57
2022/11/15 14:20:30;;;;;;;0.20;0.20;;;;;;;;;;1774005;80;26295;-57
2022/11/15 14:22:58;;;;;;;0.20;0.20;;;;;;;;;;1773435;80;26299;-53
2022/11/15 14:25:27;;;;;;;0.10;0.10;;;;;;;;;;1776163;79;26314;-56
2022/11/15 14:28:14;;;;;;;0.20;0.20;;;;;;;;;;1790888;79;26361;-57
2022/11/15 14:30:42;;;;;;;0.20;0.20;;;;;;;;;;1790037;79;26333;-58
2022/11/15 14:33:14;;;;;;;0.20;0.20;;;;;;;;;;1765804;80;26611;-58
2022/11/15 14:35:41;;;;;;;0.57;0.17;;;;;;;;;;1788692;79;26331;-58
2022/11/15 14:38:08;;;;;;;0.20;0.20;;;;;;;;;;1787083;79;26374;-57
2022/11/15 14:40:35;;;;;;;0.20;0.20;;;;;;;;;;1788066;79;26811;-58
2022/11/15 14:43:03;;;;;;;0.17;0.17;;;;;;;;;;1786851;79;27110;-56
2022/11/15 14:45:30;;;;;;;0.20;0.20;;;;;;;;;;1785906;79;26308;-54
2022/11/15 14:47:58;;;;;;;0.20;0.20;;;;;;;;;;1785967;79;26866;-57
2022/11/15 14:50:26;;;;;;;0.20;0.20;;;;;;;;;;1786819;79;26276;-56
2022/11/15 14:52:53;;;;;;;0.23;0.23;;;;;;;;;;1780749;79;29073;-55
2022/11/15 14:55:31;;;;;;;0.13;0.13;;;;;;;;;;1787151;79;26300;-52
2022/11/15 14:57:59;;;;;;;0.20;0.20;;;;;;;;;;1784911;79;26302;-57
2022/11/15 15:00:26;;;;;;;0.40;0.40;;;;;;;;;;1763030;79;26695;-57